sensor_id;sensor_type;location;lat;lon;timestamp;P1;durP1;ratioP1;P2;durP2;ratioP2
53521;SDS011;39398;48.382;9.802;2022-10-26T00:00:43;9.25;;;3.80;;
53521;SDS011;39398;48.382;9.802;2022-10-26T00:01:45;5.25;;;2.45;;
53521;SDS011;39398;48.382;9.802;2022-10-26T00:02:46;7.20;;;2.85;;
53521;SDS011;39398;48.382;9.802;2022-10-26T00:03:48;4.60;;;2.75;;
53521;SDS011;39398;48.382;9.802;2022-10-26T00:04:50;6.50;;;3.05;;
53521;SDS011;39398;48.382;9.802;2022-10-26T00:05:51;6.00;;;2.63;;
53521;SDS011;39398;48.382;9.802;2022-10-26T00:06:52;6.78;;;3.10;;
53521;SDS011;39398;48.382;9.802;2022-10-26T00:07:54;8.48;;;3.20;;
53521;SDS011;39398;48.382;9.802;2022-10-26T00:08:56;5.90;;;3.10;;
53521;SDS011;39398;48.382;9.802;2022-10-26T00:09:58;5.70;;;3.00;;
53521;SDS011;39398;48.382;9.802;2022-10-26T00:10:59;6.35;;;3.38;;
53521;SDS011;39398;48.382;9.802;2022-10-26T00:12:01;6.20;;;3.05;;
53521;SDS011;39398;48.382;9.802;2022-10-26T00:13:03;5.90;;;3.10;;
53521;SDS011;39398;48.382;9.802;2022-10-26T00:14:05;6.35;;;3.03;;
53521;SDS011;39398;48.382;9.802;2022-10-26T00:15:07;5.55;;;3.28;;
53521;SDS011;39398;48.382;9.802;2022-10-26T00:16:11;7.68;;;2.92;;
53521;SDS011;39398;48.382;9.802;2022-10-26T00:17:15;5.50;;;2.60;;
53521;SDS011;39398;48.382;9.802;2022-10-26T00:18:16;4.53;;;3.20;;
53521;SDS011;39398;48.382;9.802;2022-10-26T00:19:18;7.88;;;3.15;;
53521;SDS011;39398;48.382;9.802;2022-10-26T00:20:19;7.95;;;3.03;;
53521;SDS011;39398;48.382;9.802;2022-10-26T00:21:21;5.70;;;3.40;;
53521;SDS011;39398;48.382;9.802;2022-10-26T00:22:22;4.78;;;3.22;;
53521;SDS011;39398;48.382;9.802;2022-10-26T00:23:24;8.02;;;3.83;;
53521;SDS011;39398;48.382;9.802;2022-10-26T00:24:25;9.05;;;3.45;;
53521;SDS011;39398;48.382;9.802;2022-10-26T00:25:27;6.43;;;3.63;;
53521;SDS011;39398;48.382;9.802;2022-10-26T00:26:28;8.30;;;3.50;;
53521;SDS011;39398;48.382;9.802;2022-10-26T00:27:29;7.90;;;3.58;;
53521;SDS011;39398;48.382;9.802;2022-10-26T00:28:31;7.38;;;3.60;;
53521;SDS011;39398;48.382;9.802;2022-10-26T00:29:33;7.38;;;3.40;;
53521;SDS011;39398;48.382;9.802;2022-10-26T00:30:37;7.60;;;4.80;;
53521;SDS011;39398;48.382;9.802;2022-10-26T00:31:40;7.85;;;4.80;;
53521;SDS011;39398;48.382;9.802;2022-10-26T00:32:41;8.95;;;5.28;;
53521;SDS011;39398;48.382;9.802;2022-10-26T00:33:43;10.02;;;5.00;;
53521;SDS011;39398;48.382;9.802;2022-10-26T00:34:45;9.80;;;4.50;;
53521;SDS011;39398;48.382;9.802;2022-10-26T00:35:46;8.52;;;4.47;;
53521;SDS011;39398;48.382;9.802;2022-10-26T00:36:48;8.50;;;3.60;;
53521;SDS011;39398;48.382;9.802;2022-10-26T00:37:52;5.32;;;3.20;;
53521;SDS011;39398;48.382;9.802;2022-10-26T00:38:55;7.90;;;3.70;;
53521;SDS011;39398;48.382;9.802;2022-10-26T00:39:56;7.38;;;3.40;;
53521;SDS011;39398;48.382;9.802;2022-10-26T00:40:58;4.60;;;3.10;;
53521;SDS011;39398;48.382;9.802;2022-10-26T00:42:00;5.47;;;2.83;;
53521;SDS011;39398;48.382;9.802;2022-10-26T00:43:01;7.22;;;3.28;;
53521;SDS011;39398;48.382;9.802;2022-10-26T00:45:37;6.63;;;3.17;;
53521;SDS011;39398;48.382;9.802;2022-10-26T00:46:40;6.82;;;2.92;;
53521;SDS011;39398;48.382;9.802;2022-10-26T00:47:43;9.80;;;3.13;;
53521;SDS011;39398;48.382;9.802;2022-10-26T00:48:48;5.30;;;2.90;;
53521;SDS011;39398;48.382;9.802;2022-10-26T00:49:52;6.10;;;2.90;;
53521;SDS011;39398;48.382;9.802;2022-10-26T00:50:56;5.78;;;3.20;;
53521;SDS011;39398;48.382;9.802;2022-10-26T00:52:00;4.03;;;2.90;;
53521;SDS011;39398;48.382;9.802;2022-10-26T00:53:02;6.55;;;2.70;;
53521;SDS011;39398;48.382;9.802;2022-10-26T00:54:08;5.93;;;3.17;;
53521;SDS011;39398;48.382;9.802;2022-10-26T00:55:13;5.05;;;2.80;;
53521;SDS011;39398;48.382;9.802;2022-10-26T00:56:16;5.50;;;2.67;;
53521;SDS011;39398;48.382;9.802;2022-10-26T00:57:18;7.07;;;3.10;;
53521;SDS011;39398;48.382;9.802;2022-10-26T00:58:20;8.50;;;3.33;;
53521;SDS011;39398;48.382;9.802;2022-10-26T00:59:22;9.80;;;3.15;;
53521;SDS011;39398;48.382;9.802;2022-10-26T01:00:24;9.63;;;3.65;;
53521;SDS011;39398;48.382;9.802;2022-10-26T01:01:25;6.35;;;2.90;;
53521;SDS011;39398;48.382;9.802;2022-10-26T01:02:28;5.97;;;3.05;;
53521;SDS011;39398;48.382;9.802;2022-10-26T01:03:30;9.63;;;3.10;;
53521;SDS011;39398;48.382;9.802;2022-10-26T01:04:33;9.80;;;3.08;;
53521;SDS011;39398;48.382;9.802;2022-10-26T01:05:35;8.10;;;3.40;;
53521;SDS011;39398;48.382;9.802;2022-10-26T01:06:38;5.82;;;3.38;;
53521;SDS011;39398;48.382;9.802;2022-10-26T01:07:42;8.63;;;3.60;;
53521;SDS011;39398;48.382;9.802;2022-10-26T01:08:44;6.10;;;3.45;;
53521;SDS011;39398;48.382;9.802;2022-10-26T01:09:47;8.07;;;3.60;;
53521;SDS011;39398;48.382;9.802;2022-10-26T01:10:49;5.95;;;3.30;;
53521;SDS011;39398;48.382;9.802;2022-10-26T01:11:51;6.93;;;3.60;;
53521;SDS011;39398;48.382;9.802;2022-10-26T01:12:53;6.97;;;3.72;;
53521;SDS011;39398;48.382;9.802;2022-10-26T01:13:57;6.95;;;3.92;;
53521;SDS011;39398;48.382;9.802;2022-10-26T01:15:00;5.72;;;3.50;;
53521;SDS011;39398;48.382;9.802;2022-10-26T01:16:07;5.22;;;3.30;;
53521;SDS011;39398;48.382;9.802;2022-10-26T01:17:24;7.10;;;3.47;;
53521;SDS011;39398;48.382;9.802;2022-10-26T01:18:37;6.82;;;3.50;;
53521;SDS011;39398;48.382;9.802;2022-10-26T01:20:01;4.05;;;3.20;;
53521;SDS011;39398;48.382;9.802;2022-10-26T01:21:44;8.05;;;3.33;;
53521;SDS011;39398;48.382;9.802;2022-10-26T01:22:53;6.85;;;3.60;;
53521;SDS011;39398;48.382;9.802;2022-10-26T01:25:40;6.88;;;2.85;;
53521;SDS011;39398;48.382;9.802;2022-10-26T01:26:57;6.75;;;3.10;;
53521;SDS011;39398;48.382;9.802;2022-10-26T01:28:12;6.22;;;3.20;;
53521;SDS011;39398;48.382;9.802;2022-10-26T01:29:37;6.45;;;3.45;;
53521;SDS011;39398;48.382;9.802;2022-10-26T01:31:02;8.10;;;3.10;;
53521;SDS011;39398;48.382;9.802;2022-10-26T01:32:09;7.63;;;3.03;;
53521;SDS011;39398;48.382;9.802;2022-10-26T01:33:17;4.18;;;3.05;;
53521;SDS011;39398;48.382;9.802;2022-10-26T01:34:27;7.72;;;3.38;;
53521;SDS011;39398;48.382;9.802;2022-10-26T01:35:37;8.45;;;3.45;;
53521;SDS011;39398;48.382;9.802;2022-10-26T01:36:43;6.68;;;3.10;;
53521;SDS011;39398;48.382;9.802;2022-10-26T01:37:52;7.90;;;3.08;;
53521;SDS011;39398;48.382;9.802;2022-10-26T01:38:56;7.65;;;3.00;;
53521;SDS011;39398;48.382;9.802;2022-10-26T01:40:04;6.57;;;3.20;;
53521;SDS011;39398;48.382;9.802;2022-10-26T01:41:11;9.63;;;3.22;;
53521;SDS011;39398;48.382;9.802;2022-10-26T01:42:18;7.13;;;3.10;;
53521;SDS011;39398;48.382;9.802;2022-10-26T01:43:23;9.65;;;3.03;;
53521;SDS011;39398;48.382;9.802;2022-10-26T01:44:28;7.07;;;3.05;;
53521;SDS011;39398;48.382;9.802;2022-10-26T01:45:33;6.13;;;3.20;;
53521;SDS011;39398;48.382;9.802;2022-10-26T01:46:41;6.07;;;3.22;;
53521;SDS011;39398;48.382;9.802;2022-10-26T01:47:44;12.07;;;3.72;;
53521;SDS011;39398;48.382;9.802;2022-10-26T01:48:49;8.00;;;4.70;;
53521;SDS011;39398;48.382;9.802;2022-10-26T01:49:55;8.45;;;4.53;;
53521;SDS011;39398;48.382;9.802;2022-10-26T01:50:59;8.65;;;5.30;;
53521;SDS011;39398;48.382;9.802;2022-10-26T01:52:03;8.55;;;4.93;;
53521;SDS011;39398;48.382;9.802;2022-10-26T01:53:05;9.38;;;5.35;;
53521;SDS011;39398;48.382;9.802;2022-10-26T01:54:06;8.27;;;6.10;;
53521;SDS011;39398;48.382;9.802;2022-10-26T01:56:43;9.23;;;5.78;;
53521;SDS011;39398;48.382;9.802;2022-10-26T01:57:49;10.25;;;6.40;;
53521;SDS011;39398;48.382;9.802;2022-10-26T01:59:03;11.27;;;6.82;;
53521;SDS011;39398;48.382;9.802;2022-10-26T02:00:13;10.07;;;6.72;;
53521;SDS011;39398;48.382;9.802;2022-10-26T02:02:40;8.98;;;6.78;;
53521;SDS011;39398;48.382;9.802;2022-10-26T02:03:56;11.15;;;6.88;;
53521;SDS011;39398;48.382;9.802;2022-10-26T02:05:11;13.93;;;6.60;;
53521;SDS011;39398;48.382;9.802;2022-10-26T02:06:25;12.63;;;7.10;;
53521;SDS011;39398;48.382;9.802;2022-10-26T02:07:37;15.80;;;6.93;;
53521;SDS011;39398;48.382;9.802;2022-10-26T02:08:49;15.93;;;7.13;;
53521;SDS011;39398;48.382;9.802;2022-10-26T02:09:58;12.25;;;6.72;;
53521;SDS011;39398;48.382;9.802;2022-10-26T02:11:08;14.45;;;6.47;;
53521;SDS011;39398;48.382;9.802;2022-10-26T02:12:18;10.77;;;6.40;;
53521;SDS011;39398;48.382;9.802;2022-10-26T02:13:31;9.98;;;6.30;;
53521;SDS011;39398;48.382;9.802;2022-10-26T02:14:40;11.98;;;6.57;;
53521;SDS011;39398;48.382;9.802;2022-10-26T02:15:49;12.27;;;6.95;;
53521;SDS011;39398;48.382;9.802;2022-10-26T02:16:57;9.20;;;6.72;;
53521;SDS011;39398;48.382;9.802;2022-10-26T02:18:09;12.70;;;7.22;;
53521;SDS011;39398;48.382;9.802;2022-10-26T02:19:24;10.18;;;6.53;;
53521;SDS011;39398;48.382;9.802;2022-10-26T02:20:32;11.70;;;6.32;;
53521;SDS011;39398;48.382;9.802;2022-10-26T02:21:37;11.50;;;5.88;;
53521;SDS011;39398;48.382;9.802;2022-10-26T02:22:43;11.73;;;6.18;;
53521;SDS011;39398;48.382;9.802;2022-10-26T02:23:47;8.85;;;6.10;;
53521;SDS011;39398;48.382;9.802;2022-10-26T02:24:52;14.23;;;6.35;;
53521;SDS011;39398;48.382;9.802;2022-10-26T02:25:55;10.02;;;6.45;;
53521;SDS011;39398;48.382;9.802;2022-10-26T02:26:59;11.88;;;6.18;;
53521;SDS011;39398;48.382;9.802;2022-10-26T02:28:05;11.13;;;6.30;;
53521;SDS011;39398;48.382;9.802;2022-10-26T02:29:10;12.43;;;6.50;;
53521;SDS011;39398;48.382;9.802;2022-10-26T02:30:17;12.88;;;6.75;;
53521;SDS011;39398;48.382;9.802;2022-10-26T02:31:19;10.77;;;6.45;;
53521;SDS011;39398;48.382;9.802;2022-10-26T02:32:22;10.88;;;6.40;;
53521;SDS011;39398;48.382;9.802;2022-10-26T02:33:29;16.13;;;6.80;;
53521;SDS011;39398;48.382;9.802;2022-10-26T02:34:33;11.00;;;6.80;;
53521;SDS011;39398;48.382;9.802;2022-10-26T02:35:38;10.68;;;6.05;;
53521;SDS011;39398;48.382;9.802;2022-10-26T02:36:42;9.43;;;6.18;;
53521;SDS011;39398;48.382;9.802;2022-10-26T02:37:47;9.60;;;5.50;;
53521;SDS011;39398;48.382;9.802;2022-10-26T02:38:51;10.30;;;6.00;;
53521;SDS011;39398;48.382;9.802;2022-10-26T02:39:54;12.73;;;6.13;;
53521;SDS011;39398;48.382;9.802;2022-10-26T02:40:58;10.25;;;6.68;;
53521;SDS011;39398;48.382;9.802;2022-10-26T02:42:03;11.13;;;7.43;;
53521;SDS011;39398;48.382;9.802;2022-10-26T02:43:08;14.57;;;7.82;;
53521;SDS011;39398;48.382;9.802;2022-10-26T02:44:13;16.63;;;8.32;;
53521;SDS011;39398;48.382;9.802;2022-10-26T02:45:21;13.93;;;8.20;;
53521;SDS011;39398;48.382;9.802;2022-10-26T02:46:26;14.90;;;7.97;;
53521;SDS011;39398;48.382;9.802;2022-10-26T02:47:28;18.38;;;9.40;;
53521;SDS011;39398;48.382;9.802;2022-10-26T02:48:32;13.32;;;8.48;;
53521;SDS011;39398;48.382;9.802;2022-10-26T02:49:33;13.85;;;9.18;;
53521;SDS011;39398;48.382;9.802;2022-10-26T02:50:36;18.75;;;11.23;;
53521;SDS011;39398;48.382;9.802;2022-10-26T02:51:48;17.13;;;10.30;;
53521;SDS011;39398;48.382;9.802;2022-10-26T02:52:54;18.48;;;11.13;;
53521;SDS011;39398;48.382;9.802;2022-10-26T02:54:04;15.80;;;10.35;;
53521;SDS011;39398;48.382;9.802;2022-10-26T02:55:14;20.52;;;11.15;;
53521;SDS011;39398;48.382;9.802;2022-10-26T02:56:22;17.70;;;10.95;;
53521;SDS011;39398;48.382;9.802;2022-10-26T02:57:28;16.73;;;11.07;;
53521;SDS011;39398;48.382;9.802;2022-10-26T02:58:36;14.98;;;10.27;;
53521;SDS011;39398;48.382;9.802;2022-10-26T02:59:42;18.73;;;11.70;;
53521;SDS011;39398;48.382;9.802;2022-10-26T03:00:46;16.55;;;11.10;;
53521;SDS011;39398;48.382;9.802;2022-10-26T03:01:49;16.73;;;10.88;;
53521;SDS011;39398;48.382;9.802;2022-10-26T03:02:52;20.25;;;10.25;;
53521;SDS011;39398;48.382;9.802;2022-10-26T03:03:58;16.67;;;11.00;;
53521;SDS011;39398;48.382;9.802;2022-10-26T03:05:05;19.63;;;10.85;;
53521;SDS011;39398;48.382;9.802;2022-10-26T03:06:09;20.23;;;10.77;;
53521;SDS011;39398;48.382;9.802;2022-10-26T03:07:11;15.50;;;10.15;;
53521;SDS011;39398;48.382;9.802;2022-10-26T03:08:12;17.20;;;10.70;;
53521;SDS011;39398;48.382;9.802;2022-10-26T03:09:14;16.02;;;9.60;;
53521;SDS011;39398;48.382;9.802;2022-10-26T03:10:15;14.63;;;9.25;;
53521;SDS011;39398;48.382;9.802;2022-10-26T03:11:17;13.35;;;9.70;;
53521;SDS011;39398;48.382;9.802;2022-10-26T03:12:19;14.52;;;8.68;;
53521;SDS011;39398;48.382;9.802;2022-10-26T03:13:20;13.90;;;9.07;;
53521;SDS011;39398;48.382;9.802;2022-10-26T03:14:22;15.80;;;9.20;;
53521;SDS011;39398;48.382;9.802;2022-10-26T03:15:23;12.45;;;7.72;;
53521;SDS011;39398;48.382;9.802;2022-10-26T03:16:25;11.02;;;7.60;;
53521;SDS011;39398;48.382;9.802;2022-10-26T03:17:26;12.38;;;8.13;;
53521;SDS011;39398;48.382;9.802;2022-10-26T03:18:28;11.73;;;8.10;;
53521;SDS011;39398;48.382;9.802;2022-10-26T03:19:31;13.98;;;8.07;;
53521;SDS011;39398;48.382;9.802;2022-10-26T03:20:32;12.55;;;8.05;;
53521;SDS011;39398;48.382;9.802;2022-10-26T03:21:34;11.23;;;7.65;;
53521;SDS011;39398;48.382;9.802;2022-10-26T03:22:35;12.70;;;7.53;;
53521;SDS011;39398;48.382;9.802;2022-10-26T03:23:37;14.05;;;7.40;;
53521;SDS011;39398;48.382;9.802;2022-10-26T03:24:38;12.93;;;7.32;;
53521;SDS011;39398;48.382;9.802;2022-10-26T03:25:40;8.65;;;5.88;;
53521;SDS011;39398;48.382;9.802;2022-10-26T03:26:41;12.45;;;5.88;;
53521;SDS011;39398;48.382;9.802;2022-10-26T03:27:43;8.98;;;5.28;;
53521;SDS011;39398;48.382;9.802;2022-10-26T03:28:44;10.10;;;5.28;;
53521;SDS011;39398;48.382;9.802;2022-10-26T03:29:46;9.20;;;5.55;;
53521;SDS011;39398;48.382;9.802;2022-10-26T03:30:47;10.75;;;5.85;;
53521;SDS011;39398;48.382;9.802;2022-10-26T03:31:49;10.35;;;6.03;;
53521;SDS011;39398;48.382;9.802;2022-10-26T03:32:50;13.18;;;6.30;;
53521;SDS011;39398;48.382;9.802;2022-10-26T03:33:52;11.52;;;6.30;;
53521;SDS011;39398;48.382;9.802;2022-10-26T03:34:54;13.32;;;7.05;;
53521;SDS011;39398;48.382;9.802;2022-10-26T03:35:56;10.77;;;6.82;;
53521;SDS011;39398;48.382;9.802;2022-10-26T03:36:57;13.50;;;7.60;;
53521;SDS011;39398;48.382;9.802;2022-10-26T03:37:59;11.88;;;7.45;;
53521;SDS011;39398;48.382;9.802;2022-10-26T03:39:00;11.93;;;6.60;;
53521;SDS011;39398;48.382;9.802;2022-10-26T03:40:02;13.50;;;7.20;;
53521;SDS011;39398;48.382;9.802;2022-10-26T03:41:04;10.15;;;6.75;;
53521;SDS011;39398;48.382;9.802;2022-10-26T03:42:05;9.95;;;7.20;;
53521;SDS011;39398;48.382;9.802;2022-10-26T03:43:07;13.88;;;6.32;;
53521;SDS011;39398;48.382;9.802;2022-10-26T03:44:08;11.15;;;5.63;;
53521;SDS011;39398;48.382;9.802;2022-10-26T03:45:10;10.70;;;4.90;;
53521;SDS011;39398;48.382;9.802;2022-10-26T03:46:12;6.53;;;4.60;;
53521;SDS011;39398;48.382;9.802;2022-10-26T03:47:13;6.03;;;3.58;;
53521;SDS011;39398;48.382;9.802;2022-10-26T03:48:15;9.30;;;3.20;;
53521;SDS011;39398;48.382;9.802;2022-10-26T03:49:16;6.68;;;3.45;;
53521;SDS011;39398;48.382;9.802;2022-10-26T03:50:19;7.30;;;3.97;;
53521;SDS011;39398;48.382;9.802;2022-10-26T03:51:22;9.70;;;3.80;;
53521;SDS011;39398;48.382;9.802;2022-10-26T03:52:23;7.68;;;3.88;;
53521;SDS011;39398;48.382;9.802;2022-10-26T03:53:25;10.65;;;3.75;;
53521;SDS011;39398;48.382;9.802;2022-10-26T03:54:27;7.78;;;3.88;;
53521;SDS011;39398;48.382;9.802;2022-10-26T03:55:28;6.30;;;3.63;;
53521;SDS011;39398;48.382;9.802;2022-10-26T03:56:30;10.05;;;3.85;;
53521;SDS011;39398;48.382;9.802;2022-10-26T03:57:31;9.48;;;4.80;;
53521;SDS011;39398;48.382;9.802;2022-10-26T03:58:33;7.13;;;4.25;;
53521;SDS011;39398;48.382;9.802;2022-10-26T03:59:34;9.60;;;3.97;;
53521;SDS011;39398;48.382;9.802;2022-10-26T04:00:35;5.78;;;3.90;;
53521;SDS011;39398;48.382;9.802;2022-10-26T04:01:37;13.18;;;4.57;;
53521;SDS011;39398;48.382;9.802;2022-10-26T04:02:38;11.32;;;4.88;;
53521;SDS011;39398;48.382;9.802;2022-10-26T04:03:40;8.15;;;4.28;;
53521;SDS011;39398;48.382;9.802;2022-10-26T04:04:41;8.02;;;4.35;;
53521;SDS011;39398;48.382;9.802;2022-10-26T04:05:44;7.22;;;4.55;;
53521;SDS011;39398;48.382;9.802;2022-10-26T04:06:46;9.45;;;4.70;;
53521;SDS011;39398;48.382;9.802;2022-10-26T04:07:50;12.20;;;5.32;;
53521;SDS011;39398;48.382;9.802;2022-10-26T04:08:52;11.02;;;4.65;;
53521;SDS011;39398;48.382;9.802;2022-10-26T04:09:54;6.88;;;4.60;;
53521;SDS011;39398;48.382;9.802;2022-10-26T04:10:55;8.63;;;4.45;;
53521;SDS011;39398;48.382;9.802;2022-10-26T04:12:01;10.48;;;4.22;;
53521;SDS011;39398;48.382;9.802;2022-10-26T04:13:02;8.50;;;4.50;;
53521;SDS011;39398;48.382;9.802;2022-10-26T04:14:04;12.50;;;5.22;;
53521;SDS011;39398;48.382;9.802;2022-10-26T04:15:05;8.90;;;4.03;;
53521;SDS011;39398;48.382;9.802;2022-10-26T04:16:07;9.80;;;3.95;;
53521;SDS011;39398;48.382;9.802;2022-10-26T04:17:09;6.50;;;3.70;;
53521;SDS011;39398;48.382;9.802;2022-10-26T04:18:10;6.75;;;3.55;;
53521;SDS011;39398;48.382;9.802;2022-10-26T04:19:12;9.70;;;3.78;;
53521;SDS011;39398;48.382;9.802;2022-10-26T04:20:13;7.80;;;4.13;;
53521;SDS011;39398;48.382;9.802;2022-10-26T04:21:16;5.95;;;3.83;;
53521;SDS011;39398;48.382;9.802;2022-10-26T04:22:18;8.50;;;3.53;;
53521;SDS011;39398;48.382;9.802;2022-10-26T04:23:19;5.57;;;3.53;;
53521;SDS011;39398;48.382;9.802;2022-10-26T04:24:21;9.07;;;3.65;;
53521;SDS011;39398;48.382;9.802;2022-10-26T04:25:22;6.40;;;3.88;;
53521;SDS011;39398;48.382;9.802;2022-10-26T04:26:28;9.23;;;3.58;;
53521;SDS011;39398;48.382;9.802;2022-10-26T04:27:30;7.63;;;3.88;;
53521;SDS011;39398;48.382;9.802;2022-10-26T04:28:32;5.85;;;3.72;;
53521;SDS011;39398;48.382;9.802;2022-10-26T04:29:33;7.03;;;3.53;;
53521;SDS011;39398;48.382;9.802;2022-10-26T04:30:35;12.27;;;3.50;;
53521;SDS011;39398;48.382;9.802;2022-10-26T04:31:37;15.15;;;9.18;;
53521;SDS011;39398;48.382;9.802;2022-10-26T04:32:38;5.45;;;4.05;;
53521;SDS011;39398;48.382;9.802;2022-10-26T04:33:40;8.32;;;3.55;;
53521;SDS011;39398;48.382;9.802;2022-10-26T04:34:41;7.00;;;3.50;;
53521;SDS011;39398;48.382;9.802;2022-10-26T04:35:43;7.63;;;3.72;;
53521;SDS011;39398;48.382;9.802;2022-10-26T04:36:46;7.28;;;3.40;;
53521;SDS011;39398;48.382;9.802;2022-10-26T04:37:47;7.40;;;3.28;;
53521;SDS011;39398;48.382;9.802;2022-10-26T04:38:49;7.72;;;3.50;;
53521;SDS011;39398;48.382;9.802;2022-10-26T04:39:50;7.88;;;3.42;;
53521;SDS011;39398;48.382;9.802;2022-10-26T04:40:51;7.15;;;3.40;;
53521;SDS011;39398;48.382;9.802;2022-10-26T04:41:53;7.55;;;3.47;;
53521;SDS011;39398;48.382;9.802;2022-10-26T04:42:54;7.85;;;3.63;;
53521;SDS011;39398;48.382;9.802;2022-10-26T04:43:56;7.45;;;3.97;;
53521;SDS011;39398;48.382;9.802;2022-10-26T04:44:58;7.75;;;3.78;;
53521;SDS011;39398;48.382;9.802;2022-10-26T04:45:59;9.57;;;4.38;;
53521;SDS011;39398;48.382;9.802;2022-10-26T04:47:01;8.65;;;3.67;;
53521;SDS011;39398;48.382;9.802;2022-10-26T04:48:03;7.90;;;3.92;;
53521;SDS011;39398;48.382;9.802;2022-10-26T04:49:05;9.73;;;4.18;;
53521;SDS011;39398;48.382;9.802;2022-10-26T04:50:07;5.45;;;4.03;;
53521;SDS011;39398;48.382;9.802;2022-10-26T04:51:10;10.90;;;4.45;;
53521;SDS011;39398;48.382;9.802;2022-10-26T04:52:13;7.65;;;4.13;;
53521;SDS011;39398;48.382;9.802;2022-10-26T04:53:15;8.13;;;4.10;;
53521;SDS011;39398;48.382;9.802;2022-10-26T04:54:16;10.57;;;5.22;;
53521;SDS011;39398;48.382;9.802;2022-10-26T04:55:18;10.63;;;5.55;;
53521;SDS011;39398;48.382;9.802;2022-10-26T04:56:19;8.25;;;5.63;;
53521;SDS011;39398;48.382;9.802;2022-10-26T04:57:21;8.77;;;5.00;;
53521;SDS011;39398;48.382;9.802;2022-10-26T04:58:22;7.47;;;5.13;;
53521;SDS011;39398;48.382;9.802;2022-10-26T04:59:24;8.07;;;4.88;;
53521;SDS011;39398;48.382;9.802;2022-10-26T05:00:25;7.55;;;4.10;;
53521;SDS011;39398;48.382;9.802;2022-10-26T05:01:27;9.77;;;4.60;;
53521;SDS011;39398;48.382;9.802;2022-10-26T05:02:30;10.05;;;4.63;;
53521;SDS011;39398;48.382;9.802;2022-10-26T05:03:32;13.35;;;4.35;;
53521;SDS011;39398;48.382;9.802;2022-10-26T05:04:33;8.85;;;4.72;;
53521;SDS011;39398;48.382;9.802;2022-10-26T05:05:35;7.72;;;4.97;;
53521;SDS011;39398;48.382;9.802;2022-10-26T05:06:36;9.93;;;4.90;;
53521;SDS011;39398;48.382;9.802;2022-10-26T05:07:39;7.88;;;4.82;;
53521;SDS011;39398;48.382;9.802;2022-10-26T05:08:41;9.05;;;4.80;;
53521;SDS011;39398;48.382;9.802;2022-10-26T05:09:42;7.43;;;4.43;;
53521;SDS011;39398;48.382;9.802;2022-10-26T05:10:46;7.38;;;4.47;;
53521;SDS011;39398;48.382;9.802;2022-10-26T05:11:48;8.25;;;4.53;;
53521;SDS011;39398;48.382;9.802;2022-10-26T05:12:50;8.95;;;4.53;;
53521;SDS011;39398;48.382;9.802;2022-10-26T05:13:52;7.20;;;5.25;;
53521;SDS011;39398;48.382;9.802;2022-10-26T05:14:53;7.75;;;4.97;;
53521;SDS011;39398;48.382;9.802;2022-10-26T05:15:55;10.82;;;6.40;;
53521;SDS011;39398;48.382;9.802;2022-10-26T05:16:56;12.98;;;5.60;;
53521;SDS011;39398;48.382;9.802;2022-10-26T05:17:58;9.43;;;5.20;;
53521;SDS011;39398;48.382;9.802;2022-10-26T05:19:01;11.52;;;5.18;;
53521;SDS011;39398;48.382;9.802;2022-10-26T05:20:03;9.02;;;4.95;;
53521;SDS011;39398;48.382;9.802;2022-10-26T05:21:05;9.77;;;5.03;;
53521;SDS011;39398;48.382;9.802;2022-10-26T05:22:06;8.32;;;4.80;;
53521;SDS011;39398;48.382;9.802;2022-10-26T05:23:10;9.30;;;4.75;;
53521;SDS011;39398;48.382;9.802;2022-10-26T05:24:11;8.73;;;4.60;;
53521;SDS011;39398;48.382;9.802;2022-10-26T05:25:13;13.35;;;8.73;;
53521;SDS011;39398;48.382;9.802;2022-10-26T05:26:15;9.50;;;6.15;;
53521;SDS011;39398;48.382;9.802;2022-10-26T05:27:16;16.23;;;10.38;;
53521;SDS011;39398;48.382;9.802;2022-10-26T05:28:18;8.40;;;6.00;;
53521;SDS011;39398;48.382;9.802;2022-10-26T05:29:19;6.65;;;4.00;;
53521;SDS011;39398;48.382;9.802;2022-10-26T05:30:21;6.30;;;3.83;;
53521;SDS011;39398;48.382;9.802;2022-10-26T05:31:22;5.60;;;3.70;;
53521;SDS011;39398;48.382;9.802;2022-10-26T05:32:24;6.00;;;3.63;;
53521;SDS011;39398;48.382;9.802;2022-10-26T05:33:25;4.68;;;3.22;;
53521;SDS011;39398;48.382;9.802;2022-10-26T05:34:27;9.77;;;3.72;;
53521;SDS011;39398;48.382;9.802;2022-10-26T05:35:28;4.30;;;3.10;;
53521;SDS011;39398;48.382;9.802;2022-10-26T05:36:31;8.80;;;3.25;;
53521;SDS011;39398;48.382;9.802;2022-10-26T05:37:32;6.00;;;3.35;;
53521;SDS011;39398;48.382;9.802;2022-10-26T05:38:35;8.07;;;3.33;;
53521;SDS011;39398;48.382;9.802;2022-10-26T05:39:36;4.40;;;2.90;;
53521;SDS011;39398;48.382;9.802;2022-10-26T05:40:38;5.85;;;3.00;;
53521;SDS011;39398;48.382;9.802;2022-10-26T05:41:47;5.75;;;3.17;;
53521;SDS011;39398;48.382;9.802;2022-10-26T05:42:48;4.95;;;3.30;;
53521;SDS011;39398;48.382;9.802;2022-10-26T05:43:50;6.45;;;3.40;;
53521;SDS011;39398;48.382;9.802;2022-10-26T05:44:51;5.15;;;3.58;;
53521;SDS011;39398;48.382;9.802;2022-10-26T05:45:53;5.97;;;3.35;;
53521;SDS011;39398;48.382;9.802;2022-10-26T05:46:55;5.78;;;3.75;;
53521;SDS011;39398;48.382;9.802;2022-10-26T05:47:56;7.95;;;3.60;;
53521;SDS011;39398;48.382;9.802;2022-10-26T05:49:02;6.78;;;3.58;;
53521;SDS011;39398;48.382;9.802;2022-10-26T05:50:04;10.40;;;4.38;;
53521;SDS011;39398;48.382;9.802;2022-10-26T05:51:06;7.50;;;3.75;;
53521;SDS011;39398;48.382;9.802;2022-10-26T05:52:07;6.03;;;4.10;;
53521;SDS011;39398;48.382;9.802;2022-10-26T05:53:09;8.27;;;4.57;;
53521;SDS011;39398;48.382;9.802;2022-10-26T05:54:11;8.07;;;4.10;;
53521;SDS011;39398;48.382;9.802;2022-10-26T05:55:14;6.47;;;4.28;;
53521;SDS011;39398;48.382;9.802;2022-10-26T05:56:18;5.95;;;4.22;;
53521;SDS011;39398;48.382;9.802;2022-10-26T05:57:33;5.15;;;4.05;;
53521;SDS011;39398;48.382;9.802;2022-10-26T05:58:36;7.95;;;4.43;;
53521;SDS011;39398;48.382;9.802;2022-10-26T05:59:38;8.55;;;4.20;;
53521;SDS011;39398;48.382;9.802;2022-10-26T06:00:40;10.02;;;4.60;;
53521;SDS011;39398;48.382;9.802;2022-10-26T06:01:56;8.02;;;4.28;;
53521;SDS011;39398;48.382;9.802;2022-10-26T06:03:10;6.18;;;4.55;;
53521;SDS011;39398;48.382;9.802;2022-10-26T06:04:26;9.75;;;4.75;;
53521;SDS011;39398;48.382;9.802;2022-10-26T06:05:34;17.17;;;5.30;;
53521;SDS011;39398;48.382;9.802;2022-10-26T06:06:40;9.02;;;4.63;;
53521;SDS011;39398;48.382;9.802;2022-10-26T06:07:44;7.05;;;5.10;;
53521;SDS011;39398;48.382;9.802;2022-10-26T06:08:46;14.27;;;5.22;;
53521;SDS011;39398;48.382;9.802;2022-10-26T06:09:50;7.32;;;4.90;;
53521;SDS011;39398;48.382;9.802;2022-10-26T06:10:52;11.70;;;4.72;;
53521;SDS011;39398;48.382;9.802;2022-10-26T06:11:55;8.73;;;5.22;;
53521;SDS011;39398;48.382;9.802;2022-10-26T06:12:57;9.27;;;5.03;;
53521;SDS011;39398;48.382;9.802;2022-10-26T06:13:59;8.20;;;4.70;;
53521;SDS011;39398;48.382;9.802;2022-10-26T06:15:01;12.48;;;5.18;;
53521;SDS011;39398;48.382;9.802;2022-10-26T06:16:08;10.02;;;5.03;;
53521;SDS011;39398;48.382;9.802;2022-10-26T06:17:25;8.20;;;5.13;;
53521;SDS011;39398;48.382;9.802;2022-10-26T06:18:38;9.05;;;5.03;;
53521;SDS011;39398;48.382;9.802;2022-10-26T06:20:04;8.25;;;5.55;;
53521;SDS011;39398;48.382;9.802;2022-10-26T06:21:22;11.45;;;5.05;;
53521;SDS011;39398;48.382;9.802;2022-10-26T06:22:37;10.15;;;4.85;;
53521;SDS011;39398;48.382;9.802;2022-10-26T06:23:49;7.28;;;4.45;;
53521;SDS011;39398;48.382;9.802;2022-10-26T06:24:59;7.82;;;5.07;;
53521;SDS011;39398;48.382;9.802;2022-10-26T06:26:13;8.73;;;4.45;;
53521;SDS011;39398;48.382;9.802;2022-10-26T06:27:27;11.13;;;5.10;;
53521;SDS011;39398;48.382;9.802;2022-10-26T06:28:40;8.70;;;5.28;;
53521;SDS011;39398;48.382;9.802;2022-10-26T06:29:56;6.05;;;4.50;;
53521;SDS011;39398;48.382;9.802;2022-10-26T06:31:01;7.43;;;4.95;;